sensor_id;sensor_type;location;lat;lon;timestamp;temperature;humidity
22738;DHT22;11536;50.860;4.286;2023-08-17T00:02:23;21.50;99.90
22738;DHT22;11536;50.860;4.286;2023-08-17T00:04:48;21.50;99.90
22738;DHT22;11536;50.860;4.286;2023-08-17T00:07:14;21.50;99.90
22738;DHT22;11536;50.860;4.286;2023-08-17T00:09:40;21.50;99.90
22738;DHT22;11536;50.860;4.286;2023-08-17T00:12:06;21.50;99.90
22738;DHT22;11536;50.860;4.286;2023-08-17T00:14:32;21.50;99.90
22738;DHT22;11536;50.860;4.286;2023-08-17T00:16:57;21.40;99.90
22738;DHT22;11536;50.860;4.286;2023-08-17T00:19:23;21.40;99.90
22738;DHT22;11536;50.860;4.286;2023-08-17T00:21:51;21.40;99.90
22738;DHT22;11536;50.860;4.286;2023-08-17T00:24:17;21.30;99.90
22738;DHT22;11536;50.860;4.286;2023-08-17T00:26:43;21.30;99.90
22738;DHT22;11536;50.860;4.286;2023-08-17T00:29:09;21.20;99.90
22738;DHT22;11536;50.860;4.286;2023-08-17T00:31:34;21.20;99.90
22738;DHT22;11536;50.860;4.286;2023-08-17T00:34:00;21.20;99.90
22738;DHT22;11536;50.860;4.286;2023-08-17T00:36:25;21.20;99.90
22738;DHT22;11536;50.860;4.286;2023-08-17T00:38:51;21.20;99.90
22738;DHT22;11536;50.860;4.286;2023-08-17T00:41:17;21.20;99.90
22738;DHT22;11536;50.860;4.286;2023-08-17T00:43:42;21.20;99.90
22738;DHT22;11536;50.860;4.286;2023-08-17T00:46:08;21.20;99.90
22738;DHT22;11536;50.860;4.286;2023-08-17T00:48:34;21.20;99.90
22738;DHT22;11536;50.860;4.286;2023-08-17T00:51:01;21.20;99.90
22738;DHT22;11536;50.860;4.286;2023-08-17T00:53:29;21.10;99.90
22738;DHT22;11536;50.860;4.286;2023-08-17T00:55:56;21.10;99.90
22738;DHT22;11536;50.860;4.286;2023-08-17T00:58:22;21.10;99.90
22738;DHT22;11536;50.860;4.286;2023-08-17T01:00:50;21.10;99.90
22738;DHT22;11536;50.860;4.286;2023-08-17T01:03:16;21.10;99.90
22738;DHT22;11536;50.860;4.286;2023-08-17T01:05:42;21.10;99.90
22738;DHT22;11536;50.860;4.286;2023-08-17T01:08:09;21.00;99.90
22738;DHT22;11536;50.860;4.286;2023-08-17T01:11:01;20.90;99.90
22738;DHT22;11536;50.860;4.286;2023-08-17T01:16:56;20.90;99.90
22738;DHT22;11536;50.860;4.286;2023-08-17T01:19:28;20.80;99.90
22738;DHT22;11536;50.860;4.286;2023-08-17T01:22:08;20.70;99.90
22738;DHT22;11536;50.860;4.286;2023-08-17T01:24:34;20.70;99.90
22738;DHT22;11536;50.860;4.286;2023-08-17T01:27:00;20.70;99.90
22738;DHT22;11536;50.860;4.286;2023-08-17T01:29:26;20.70;99.90
22738;DHT22;11536;50.860;4.286;2023-08-17T01:32:01;20.60;99.90
22738;DHT22;11536;50.860;4.286;2023-08-17T01:34:33;20.60;99.90
22738;DHT22;11536;50.860;4.286;2023-08-17T01:37:02;20.60;99.90
22738;DHT22;11536;50.860;4.286;2023-08-17T01:39:39;20.60;99.90
22738;DHT22;11536;50.860;4.286;2023-08-17T01:42:06;20.60;99.90
22738;DHT22;11536;50.860;4.286;2023-08-17T01:44:33;20.60;99.90
22738;DHT22;11536;50.860;4.286;2023-08-17T01:46:59;20.60;99.90
22738;DHT22;11536;50.860;4.286;2023-08-17T01:49:24;20.60;99.90
22738;DHT22;11536;50.860;4.286;2023-08-17T01:51:50;20.60;99.90
22738;DHT22;11536;50.860;4.286;2023-08-17T01:54:16;20.60;99.90
22738;DHT22;11536;50.860;4.286;2023-08-17T01:56:41;20.50;99.90
22738;DHT22;11536;50.860;4.286;2023-08-17T01:59:07;20.40;99.90
22738;DHT22;11536;50.860;4.286;2023-08-17T02:01:32;20.40;99.90
22738;DHT22;11536;50.860;4.286;2023-08-17T02:03:58;20.40;99.90
22738;DHT22;11536;50.860;4.286;2023-08-17T02:06:28;20.30;99.90
22738;DHT22;11536;50.860;4.286;2023-08-17T02:08:54;20.30;99.90
22738;DHT22;11536;50.860;4.286;2023-08-17T02:11:19;20.30;99.90
22738;DHT22;11536;50.860;4.286;2023-08-17T02:13:45;20.30;99.90
22738;DHT22;11536;50.860;4.286;2023-08-17T02:16:11;20.30;99.90
22738;DHT22;11536;50.860;4.286;2023-08-17T02:18:36;20.20;99.90
22738;DHT22;11536;50.860;4.286;2023-08-17T02:21:03;20.20;99.90
22738;DHT22;11536;50.860;4.286;2023-08-17T02:23:28;20.20;99.90
22738;DHT22;11536;50.860;4.286;2023-08-17T02:25:54;20.10;99.90
22738;DHT22;11536;50.860;4.286;2023-08-17T02:28:20;20.20;99.90
22738;DHT22;11536;50.860;4.286;2023-08-17T02:30:46;20.10;99.90
22738;DHT22;11536;50.860;4.286;2023-08-17T02:33:12;20.10;99.90
22738;DHT22;11536;50.860;4.286;2023-08-17T02:35:37;20.00;99.90
22738;DHT22;11536;50.860;4.286;2023-08-17T02:38:03;20.00;99.90
22738;DHT22;11536;50.860;4.286;2023-08-17T02:40:29;20.00;99.90
22738;DHT22;11536;50.860;4.286;2023-08-17T02:42:54;19.90;99.90
22738;DHT22;11536;50.860;4.286;2023-08-17T02:45:20;20.00;99.90
22738;DHT22;11536;50.860;4.286;2023-08-17T02:47:45;19.90;99.90
22738;DHT22;11536;50.860;4.286;2023-08-17T02:50:11;19.90;99.90
22738;DHT22;11536;50.860;4.286;2023-08-17T02:52:37;19.80;99.90
22738;DHT22;11536;50.860;4.286;2023-08-17T02:55:03;19.80;99.90
22738;DHT22;11536;50.860;4.286;2023-08-17T02:57:28;19.80;99.90
22738;DHT22;11536;50.860;4.286;2023-08-17T02:59:54;19.80;99.90
22738;DHT22;11536;50.860;4.286;2023-08-17T03:02:20;19.70;99.90
22738;DHT22;11536;50.860;4.286;2023-08-17T03:04:45;19.80;99.90
22738;DHT22;11536;50.860;4.286;2023-08-17T03:07:11;19.80;99.90
22738;DHT22;11536;50.860;4.286;2023-08-17T03:09:36;19.80;99.90
22738;DHT22;11536;50.860;4.286;2023-08-17T03:12:02;19.80;99.90
22738;DHT22;11536;50.860;4.286;2023-08-17T03:14:28;19.80;99.90
22738;DHT22;11536;50.860;4.286;2023-08-17T03:16:53;19.80;99.90
22738;DHT22;11536;50.860;4.286;2023-08-17T03:19:21;19.80;99.90
22738;DHT22;11536;50.860;4.286;2023-08-17T03:21:46;19.80;99.90
22738;DHT22;11536;50.860;4.286;2023-08-17T03:24:12;19.90;99.90
22738;DHT22;11536;50.860;4.286;2023-08-17T03:26:37;19.90;99.90
22738;DHT22;11536;50.860;4.286;2023-08-17T03:29:03;19.80;99.90
22738;DHT22;11536;50.860;4.286;2023-08-17T03:31:29;19.80;99.90
22738;DHT22;11536;50.860;4.286;2023-08-17T03:33:54;19.80;99.90
22738;DHT22;11536;50.860;4.286;2023-08-17T03:36:21;19.80;99.90
22738;DHT22;11536;50.860;4.286;2023-08-17T03:38:46;19.80;99.90
22738;DHT22;11536;50.860;4.286;2023-08-17T03:41:12;19.80;99.90
22738;DHT22;11536;50.860;4.286;2023-08-17T03:43:38;19.70;99.90
22738;DHT22;11536;50.860;4.286;2023-08-17T03:46:04;19.70;99.90
22738;DHT22;11536;50.860;4.286;2023-08-17T03:48:30;19.70;99.90
22738;DHT22;11536;50.860;4.286;2023-08-17T03:50:56;19.70;99.90
22738;DHT22;11536;50.860;4.286;2023-08-17T03:53:22;19.70;99.90
22738;DHT22;11536;50.860;4.286;2023-08-17T03:55:48;19.70;99.90
22738;DHT22;11536;50.860;4.286;2023-08-17T03:58:14;19.70;99.90
22738;DHT22;11536;50.860;4.286;2023-08-17T04:00:40;19.80;99.90
22738;DHT22;11536;50.860;4.286;2023-08-17T04:03:06;19.80;99.90
22738;DHT22;11536;50.860;4.286;2023-08-17T04:05:32;19.80;99.90
22738;DHT22;11536;50.860;4.286;2023-08-17T04:07:59;19.80;99.90
22738;DHT22;11536;50.860;4.286;2023-08-17T04:10:29;19.80;99.90
22738;DHT22;11536;50.860;4.286;2023-08-17T04:12:57;19.80;99.90
22738;DHT22;11536;50.860;4.286;2023-08-17T04:15:23;19.80;99.90
22738;DHT22;11536;50.860;4.286;2023-08-17T04:17:49;19.80;99.90
22738;DHT22;11536;50.860;4.286;2023-08-17T04:20:14;19.80;99.90
22738;DHT22;11536;50.860;4.286;2023-08-17T04:22:40;19.80;99.90
22738;DHT22;11536;50.860;4.286;2023-08-17T04:25:06;19.70;99.90
22738;DHT22;11536;50.860;4.286;2023-08-17T04:27:33;19.70;99.90
22738;DHT22;11536;50.860;4.286;2023-08-17T04:30:00;19.60;99.90
22738;DHT22;11536;50.860;4.286;2023-08-17T04:32:25;19.60;99.90
22738;DHT22;11536;50.860;4.286;2023-08-17T04:34:51;19.60;99.90
22738;DHT22;11536;50.860;4.286;2023-08-17T04:37:17;19.60;99.90
22738;DHT22;11536;50.860;4.286;2023-08-17T04:39:42;19.60;99.90
22738;DHT22;11536;50.860;4.286;2023-08-17T04:42:09;19.50;99.90
22738;DHT22;11536;50.860;4.286;2023-08-17T04:44:35;19.50;99.90
22738;DHT22;11536;50.860;4.286;2023-08-17T04:47:01;19.50;99.90
22738;DHT22;11536;50.860;4.286;2023-08-17T04:49:26;19.50;99.90
22738;DHT22;11536;50.860;4.286;2023-08-17T04:51:53;19.50;99.90
22738;DHT22;11536;50.860;4.286;2023-08-17T04:54:18;19.40;99.90
22738;DHT22;11536;50.860;4.286;2023-08-17T04:56:44;19.40;99.90
22738;DHT22;11536;50.860;4.286;2023-08-17T04:59:10;19.40;99.90
22738;DHT22;11536;50.860;4.286;2023-08-17T05:01:35;19.40;99.90
22738;DHT22;11536;50.860;4.286;2023-08-17T05:04:02;19.40;99.90
22738;DHT22;11536;50.860;4.286;2023-08-17T05:06:29;19.40;99.90
22738;DHT22;11536;50.860;4.286;2023-08-17T05:08:55;19.40;99.90
22738;DHT22;11536;50.860;4.286;2023-08-17T05:11:20;19.40;99.90
22738;DHT22;11536;50.860;4.286;2023-08-17T05:13:46;19.30;99.90
22738;DHT22;11536;50.860;4.286;2023-08-17T05:16:11;19.40;99.90
22738;DHT22;11536;50.860;4.286;2023-08-17T05:18:37;19.40;99.90
22738;DHT22;11536;50.860;4.286;2023-08-17T05:21:03;19.40;99.90
22738;DHT22;11536;50.860;4.286;2023-08-17T05:23:28;19.40;99.90
22738;DHT22;11536;50.860;4.286;2023-08-17T05:25:54;19.40;99.90
22738;DHT22;11536;50.860;4.286;2023-08-17T05:28:20;19.40;99.90
22738;DHT22;11536;50.860;4.286;2023-08-17T05:30:46;19.40;99.90
22738;DHT22;11536;50.860;4.286;2023-08-17T05:33:12;19.40;99.90
22738;DHT22;11536;50.860;4.286;2023-08-17T05:35:37;19.40;99.90
22738;DHT22;11536;50.860;4.286;2023-08-17T05:38:03;19.40;99.90
22738;DHT22;11536;50.860;4.286;2023-08-17T05:40:30;19.40;99.90
22738;DHT22;11536;50.860;4.286;2023-08-17T05:42:56;19.40;99.90
22738;DHT22;11536;50.860;4.286;2023-08-17T05:45:21;19.40;99.90
22738;DHT22;11536;50.860;4.286;2023-08-17T05:47:47;19.40;99.90
22738;DHT22;11536;50.860;4.286;2023-08-17T05:50:13;19.40;99.90
22738;DHT22;11536;50.860;4.286;2023-08-17T05:52:40;19.40;99.90
22738;DHT22;11536;50.860;4.286;2023-08-17T05:55:05;19.50;99.90
22738;DHT22;11536;50.860;4.286;2023-08-17T05:57:31;19.50;99.90
22738;DHT22;11536;50.860;4.286;2023-08-17T05:59:57;19.50;99.90
22738;DHT22;11536;50.860;4.286;2023-08-17T06:02:22;19.50;99.90
22738;DHT22;11536;50.860;4.286;2023-08-17T06:04:48;19.60;99.90
22738;DHT22;11536;50.860;4.286;2023-08-17T06:07:13;19.60;99.90
22738;DHT22;11536;50.860;4.286;2023-08-17T06:09:39;19.60;99.90
22738;DHT22;11536;50.860;4.286;2023-08-17T06:12:05;19.60;99.90
22738;DHT22;11536;50.860;4.286;2023-08-17T06:14:32;19.70;99.90
22738;DHT22;11536;50.860;4.286;2023-08-17T06:16:58;19.70;99.90
22738;DHT22;11536;50.860;4.286;2023-08-17T06:19:24;19.70;99.90
22738;DHT22;11536;50.860;4.286;2023-08-17T06:21:50;19.70;99.90
22738;DHT22;11536;50.860;4.286;2023-08-17T06:24:15;19.70;99.90
22738;DHT22;11536;50.860;4.286;2023-08-17T06:26:41;19.70;99.90
22738;DHT22;11536;50.860;4.286;2023-08-17T06:29:07;19.70;99.90
22738;DHT22;11536;50.860;4.286;2023-08-17T06:31:32;19.70;99.90
22738;DHT22;11536;50.860;4.286;2023-08-17T06:33:58;19.60;99.90
22738;DHT22;11536;50.860;4.286;2023-08-17T06:36:24;19.60;99.90
22738;DHT22;11536;50.860;4.286;2023-08-17T06:38:49;19.60;99.90
22738;DHT22;11536;50.860;4.286;2023-08-17T06:41:16;19.60;99.90
22738;DHT22;11536;50.860;4.286;2023-08-17T06:43:42;19.70;99.90
22738;DHT22;11536;50.860;4.286;2023-08-17T06:46:07;19.70;99.90
22738;DHT22;11536;50.860;4.286;2023-08-17T06:48:33;19.70;99.90
22738;DHT22;11536;50.860;4.286;2023-08-17T06:50:59;19.70;99.90
22738;DHT22;11536;50.860;4.286;2023-08-17T06:53:24;19.70;99.90
22738;DHT22;11536;50.860;4.286;2023-08-17T06:55:50;19.60;99.90
22738;DHT22;11536;50.860;4.286;2023-08-17T06:58:17;19.60;99.90
22738;DHT22;11536;50.860;4.286;2023-08-17T07:00:42;19.60;99.90
22738;DHT22;11536;50.860;4.286;2023-08-17T07:03:09;19.60;99.90
22738;DHT22;11536;50.860;4.286;2023-08-17T07:05:34;19.50;99.90
22738;DHT22;11536;50.860;4.286;2023-08-17T07:08:00;19.60;99.90
22738;DHT22;11536;50.860;4.286;2023-08-17T07:10:27;19.60;99.90
22738;DHT22;11536;50.860;4.286;2023-08-17T07:12:52;19.60;99.90
22738;DHT22;11536;50.860;4.286;2023-08-17T07:15:18;19.60;99.90
22738;DHT22;11536;50.860;4.286;2023-08-17T07:17:44;19.60;99.90
22738;DHT22;11536;50.860;4.286;2023-08-17T07:20:10;19.60;99.90
22738;DHT22;11536;50.860;4.286;2023-08-17T07:22:39;19.60;99.90
22738;DHT22;11536;50.860;4.286;2023-08-17T07:25:05;19.60;99.90
22738;DHT22;11536;50.860;4.286;2023-08-17T07:27:30;19.60;99.90
22738;DHT22;11536;50.860;4.286;2023-08-17T07:29:56;19.60;99.90
22738;DHT22;11536;50.860;4.286;2023-08-17T07:32:22;19.60;99.90
22738;DHT22;11536;50.860;4.286;2023-08-17T07:34:50;19.60;99.90
22738;DHT22;11536;50.860;4.286;2023-08-17T07:37:16;19.60;99.90
22738;DHT22;11536;50.860;4.286;2023-08-17T07:39:42;19.70;99.90
22738;DHT22;11536;50.860;4.286;2023-08-17T07:42:07;19.70;99.90
22738;DHT22;11536;50.860;4.286;2023-08-17T07:44:33;19.70;99.90
22738;DHT22;11536;50.860;4.286;2023-08-17T07:47:00;19.60;99.90
22738;DHT22;11536;50.860;4.286;2023-08-17T07:49:27;19.60;99.90
22738;DHT22;11536;50.860;4.286;2023-08-17T07:51:53;19.50;99.90
22738;DHT22;11536;50.860;4.286;2023-08-17T07:54:19;19.50;99.90
22738;DHT22;11536;50.860;4.286;2023-08-17T07:56:44;19.50;99.90
22738;DHT22;11536;50.860;4.286;2023-08-17T07:59:10;19.50;99.90
22738;DHT22;11536;50.860;4.286;2023-08-17T08:01:35;19.60;99.90
22738;DHT22;11536;50.860;4.286;2023-08-17T08:04:02;19.50;99.90
22738;DHT22;11536;50.860;4.286;2023-08-17T08:06:27;19.50;99.90
22738;DHT22;11536;50.860;4.286;2023-08-17T08:08:53;19.50;99.90
22738;DHT22;11536;50.860;4.286;2023-08-17T08:11:21;19.50;99.90
22738;DHT22;11536;50.860;4.286;2023-08-17T08:13:47;19.50;99.90
22738;DHT22;11536;50.860;4.286;2023-08-17T08:16:12;19.50;99.90
22738;DHT22;11536;50.860;4.286;2023-08-17T08:18:38;19.60;99.90
22738;DHT22;11536;50.860;4.286;2023-08-17T08:21:04;19.50;99.90
22738;DHT22;11536;50.860;4.286;2023-08-17T08:23:29;19.50;99.90
22738;DHT22;11536;50.860;4.286;2023-08-17T08:25:55;19.40;99.90
22738;DHT22;11536;50.860;4.286;2023-08-17T08:28:21;19.40;99.90
22738;DHT22;11536;50.860;4.286;2023-08-17T08:30:46;19.40;99.90
22738;DHT22;11536;50.860;4.286;2023-08-17T08:33:12;19.40;99.90
22738;DHT22;11536;50.860;4.286;2023-08-17T08:35:40;19.50;99.90
22738;DHT22;11536;50.860;4.286;2023-08-17T08:38:06;19.50;99.90
22738;DHT22;11536;50.860;4.286;2023-08-17T08:40:32;19.50;99.90
22738;DHT22;11536;50.860;4.286;2023-08-17T08:43:01;19.50;99.90
22738;DHT22;11536;50.860;4.286;2023-08-17T08:45:28;19.50;99.90
22738;DHT22;11536;50.860;4.286;2023-08-17T08:47:56;19.50;99.90
22738;DHT22;11536;50.860;4.286;2023-08-17T08:50:23;19.60;99.90
22738;DHT22;11536;50.860;4.286;2023-08-17T08:53:02;19.60;99.90
22738;DHT22;11536;50.860;4.286;2023-08-17T08:55:34;19.70;99.90
22738;DHT22;11536;50.860;4.286;2023-08-17T08:58:03;19.70;99.90
22738;DHT22;11536;50.860;4.286;2023-08-17T09:00:29;19.70;99.90
22738;DHT22;11536;50.860;4.286;2023-08-17T09:02:55;19.70;99.90
22738;DHT22;11536;50.860;4.286;2023-08-17T09:05:22;19.80;99.90
22738;DHT22;11536;50.860;4.286;2023-08-17T09:07:49;19.80;99.90
22738;DHT22;11536;50.860;4.286;2023-08-17T09:10:16;19.80;99.90
22738;DHT22;11536;50.860;4.286;2023-08-17T09:12:45;19.80;99.90
22738;DHT22;11536;50.860;4.286;2023-08-17T09:15:11;19.80;99.90
22738;DHT22;11536;50.860;4.286;2023-08-17T09:17:36;19.80;99.90
22738;DHT22;11536;50.860;4.286;2023-08-17T09:20:02;19.80;99.90
22738;DHT22;11536;50.860;4.286;2023-08-17T09:22:39;19.80;99.90
22738;DHT22;11536;50.860;4.286;2023-08-17T09:25:06;19.80;99.90
22738;DHT22;11536;50.860;4.286;2023-08-17T09:27:32;19.80;99.90
22738;DHT22;11536;50.860;4.286;2023-08-17T09:30:06;19.90;99.90
22738;DHT22;11536;50.860;4.286;2023-08-17T09:32:33;19.90;99.90
22738;DHT22;11536;50.860;4.286;2023-08-17T09:35:04;19.90;99.90
22738;DHT22;11536;50.860;4.286;2023-08-17T09:37:34;20.00;99.90
22738;DHT22;11536;50.860;4.286;2023-08-17T09:40:00;20.00;99.90
22738;DHT22;11536;50.860;4.286;2023-08-17T09:42:26;20.10;99.90
22738;DHT22;11536;50.860;4.286;2023-08-17T09:44:54;20.20;99.90
22738;DHT22;11536;50.860;4.286;2023-08-17T09:47:22;20.20;99.90
22738;DHT22;11536;50.860;4.286;2023-08-17T09:50:10;20.20;99.90
22738;DHT22;11536;50.860;4.286;2023-08-17T09:52:38;20.30;99.90
22738;DHT22;11536;50.860;4.286;2023-08-17T09:55:06;20.30;99.90
22738;DHT22;11536;50.860;4.286;2023-08-17T09:57:33;20.30;99.90
22738;DHT22;11536;50.860;4.286;2023-08-17T09:59:59;20.30;99.90
22738;DHT22;11536;50.860;4.286;2023-08-17T10:02:26;20.40;99.90
22738;DHT22;11536;50.860;4.286;2023-08-17T10:05:00;20.40;99.90
22738;DHT22;11536;50.860;4.286;2023-08-17T10:07:31;20.50;99.90
22738;DHT22;11536;50.860;4.286;2023-08-17T10:10:04;20.50;99.90
22738;DHT22;11536;50.860;4.286;2023-08-17T10:12:37;20.60;99.90
22738;DHT22;11536;50.860;4.286;2023-08-17T10:15:09;20.60;99.90
22738;DHT22;11536;50.860;4.286;2023-08-17T10:17:43;20.60;99.90
22738;DHT22;11536;50.860;4.286;2023-08-17T10:20:09;20.60;99.90
22738;DHT22;11536;50.860;4.286;2023-08-17T10:25:33;20.70;99.90
22738;DHT22;11536;50.860;4.286;2023-08-17T10:28:00;20.60;99.90
22738;DHT22;11536;50.860;4.286;2023-08-17T10:30:29;20.70;99.90
22738;DHT22;11536;50.860;4.286;2023-08-17T10:32:55;20.80;99.90
22738;DHT22;11536;50.860;4.286;2023-08-17T10:35:22;20.80;99.90
22738;DHT22;11536;50.860;4.286;2023-08-17T10:37:48;20.90;99.90
22738;DHT22;11536;50.860;4.286;2023-08-17T10:40:14;21.00;99.90
22738;DHT22;11536;50.860;4.286;2023-08-17T10:42:40;21.00;99.90
22738;DHT22;11536;50.860;4.286;2023-08-17T10:45:32;21.00;99.90
22738;DHT22;11536;50.860;4.286;2023-08-17T10:48:26;21.20;99.90
22738;DHT22;11536;50.860;4.286;2023-08-17T10:51:03;21.20;99.90
22738;DHT22;11536;50.860;4.286;2023-08-17T10:53:37;21.20;99.90
22738;DHT22;11536;50.860;4.286;2023-08-17T10:56:11;21.30;99.90
22738;DHT22;11536;50.860;4.286;2023-08-17T10:58:37;21.30;99.90
22738;DHT22;11536;50.860;4.286;2023-08-17T11:01:03;21.30;99.90
22738;DHT22;11536;50.860;4.286;2023-08-17T11:03:29;21.30;99.90
22738;DHT22;11536;50.860;4.286;2023-08-17T11:05:55;21.30;99.90
22738;DHT22;11536;50.860;4.286;2023-08-17T11:08:31;21.40;99.90
22738;DHT22;11536;50.860;4.286;2023-08-17T11:11:06;21.40;99.90
22738;DHT22;11536;50.860;4.286;2023-08-17T11:13:36;21.50;99.90
22738;DHT22;11536;50.860;4.286;2023-08-17T11:16:03;21.50;99.90
22738;DHT22;11536;50.860;4.286;2023-08-17T11:18:29;21.50;99.90
22738;DHT22;11536;50.860;4.286;2023-08-17T11:20:55;21.60;99.90
22738;DHT22;11536;50.860;4.286;2023-08-17T11:23:22;21.60;99.90
22738;DHT22;11536;50.860;4.286;2023-08-17T11:25:49;21.50;99.90
22738;DHT22;11536;50.860;4.286;2023-08-17T11:28:17;21.60;99.90
22738;DHT22;11536;50.860;4.286;2023-08-17T11:30:42;21.60;99.90
22738;DHT22;11536;50.860;4.286;2023-08-17T11:33:09;21.60;99.90
22738;DHT22;11536;50.860;4.286;2023-08-17T11:35:44;21.60;99.90
22738;DHT22;11536;50.860;4.286;2023-08-17T11:38:11;21.60;99.90
22738;DHT22;11536;50.860;4.286;2023-08-17T11:40:36;21.60;99.90
22738;DHT22;11536;50.860;4.286;2023-08-17T11:43:11;21.60;99.90
22738;DHT22;11536;50.860;4.286;2023-08-17T11:45:37;21.70;99.90
22738;DHT22;11536;50.860;4.286;2023-08-17T11:48:03;21.70;99.90
22738;DHT22;11536;50.860;4.286;2023-08-17T11:50:29;21.70;99.90
22738;DHT22;11536;50.860;4.286;2023-08-17T11:52:54;21.70;99.90
22738;DHT22;11536;50.860;4.286;2023-08-17T11:55:20;21.70;99.90
22738;DHT22;11536;50.860;4.286;2023-08-17T11:57:46;21.70;99.90
22738;DHT22;11536;50.860;4.286;2023-08-17T12:00:18;21.70;99.90
22738;DHT22;11536;50.860;4.286;2023-08-17T12:02:49;21.70;99.90
22738;DHT22;11536;50.860;4.286;2023-08-17T12:05:22;21.70;99.90
22738;DHT22;11536;50.860;4.286;2023-08-17T12:07:49;21.80;99.90
22738;DHT22;11536;50.860;4.286;2023-08-17T12:10:17;21.70;99.90
22738;DHT22;11536;50.860;4.286;2023-08-17T12:12:42;21.70;99.90
22738;DHT22;11536;50.860;4.286;2023-08-17T12:15:10;21.80;99.90
22738;DHT22;11536;50.860;4.286;2023-08-17T12:17:44;21.80;99.90
22738;DHT22;11536;50.860;4.286;2023-08-17T12:20:18;21.80;99.90
22738;DHT22;11536;50.860;4.286;2023-08-17T12:22:44;21.80;99.90
22738;DHT22;11536;50.860;4.286;2023-08-17T12:25:10;21.80;99.90
22738;DHT22;11536;50.860;4.286;2023-08-17T12:27:36;21.80;99.90
22738;DHT22;11536;50.860;4.286;2023-08-17T12:30:03;21.80;99.90
22738;DHT22;11536;50.860;4.286;2023-08-17T12:32:28;21.80;99.90
22738;DHT22;11536;50.860;4.286;2023-08-17T12:34:54;21.80;99.90
22738;DHT22;11536;50.860;4.286;2023-08-17T12:37:20;21.90;99.90
22738;DHT22;11536;50.860;4.286;2023-08-17T12:39:46;21.90;99.90
22738;DHT22;11536;50.860;4.286;2023-08-17T12:42:13;22.00;99.90
22738;DHT22;11536;50.860;4.286;2023-08-17T12:44:40;21.90;99.90
22738;DHT22;11536;50.860;4.286;2023-08-17T12:47:05;21.90;99.90
22738;DHT22;11536;50.860;4.286;2023-08-17T12:49:31;22.00;99.90
22738;DHT22;11536;50.860;4.286;2023-08-17T12:51:56;21.90;99.90
22738;DHT22;11536;50.860;4.286;2023-08-17T12:54:22;22.00;99.90
22738;DHT22;11536;50.860;4.286;2023-08-17T12:56:48;22.00;99.90
22738;DHT22;11536;50.860;4.286;2023-08-17T12:59:14;22.10;99.90
22738;DHT22;11536;50.860;4.286;2023-08-17T13:01:39;22.00;99.90
22738;DHT22;11536;50.860;4.286;2023-08-17T13:04:05;22.10;99.90
22738;DHT22;11536;50.860;4.286;2023-08-17T13:06:31;22.10;99.90
22738;DHT22;11536;50.860;4.286;2023-08-17T13:08:57;22.10;99.90
22738;DHT22;11536;50.860;4.286;2023-08-17T13:11:23;22.10;99.90
22738;DHT22;11536;50.860;4.286;2023-08-17T13:13:48;22.10;99.90
22738;DHT22;11536;50.860;4.286;2023-08-17T13:16:14;22.10;99.90
22738;DHT22;11536;50.860;4.286;2023-08-17T13:18:39;22.20;99.90
22738;DHT22;11536;50.860;4.286;2023-08-17T13:21:05;22.20;99.90
22738;DHT22;11536;50.860;4.286;2023-08-17T13:23:31;22.10;99.90
22738;DHT22;11536;50.860;4.286;2023-08-17T13:25:56;22.10;99.90
22738;DHT22;11536;50.860;4.286;2023-08-17T13:28:22;22.10;99.90
22738;DHT22;11536;50.860;4.286;2023-08-17T13:30:48;22.10;99.90
22738;DHT22;11536;50.860;4.286;2023-08-17T13:33:14;22.10;99.90
22738;DHT22;11536;50.860;4.286;2023-08-17T13:35:42;22.20;99.90
22738;DHT22;11536;50.860;4.286;2023-08-17T13:38:08;22.20;99.90
22738;DHT22;11536;50.860;4.286;2023-08-17T13:40:34;22.20;99.90
22738;DHT22;11536;50.860;4.286;2023-08-17T13:43:01;22.20;99.90
22738;DHT22;11536;50.860;4.286;2023-08-17T13:45:28;22.10;99.90
22738;DHT22;11536;50.860;4.286;2023-08-17T13:47:56;22.20;99.90
22738;DHT22;11536;50.860;4.286;2023-08-17T13:50:22;22.20;99.90
22738;DHT22;11536;50.860;4.286;2023-08-17T13:52:48;22.20;99.90
22738;DHT22;11536;50.860;4.286;2023-08-17T13:55:13;22.20;99.90
22738;DHT22;11536;50.860;4.286;2023-08-17T13:57:39;22.20;99.90
22738;DHT22;11536;50.860;4.286;2023-08-17T14:00:05;22.20;99.90
22738;DHT22;11536;50.860;4.286;2023-08-17T14:02:31;22.20;99.90
22738;DHT22;11536;50.860;4.286;2023-08-17T14:04:57;22.20;99.90
22738;DHT22;11536;50.860;4.286;2023-08-17T14:07:22;22.20;99.90
22738;DHT22;11536;50.860;4.286;2023-08-17T14:09:48;22.20;99.90
22738;DHT22;11536;50.860;4.286;2023-08-17T14:12:14;22.30;99.90
22738;DHT22;11536;50.860;4.286;2023-08-17T14:14:39;22.30;99.90
22738;DHT22;11536;50.860;4.286;2023-08-17T14:17:05;22.20;99.90
22738;DHT22;11536;50.860;4.286;2023-08-17T14:19:31;22.20;99.90
22738;DHT22;11536;50.860;4.286;2023-08-17T14:21:56;22.20;99.90
22738;DHT22;11536;50.860;4.286;2023-08-17T14:24:22;22.20;99.90
22738;DHT22;11536;50.860;4.286;2023-08-17T14:26:48;22.20;99.90
22738;DHT22;11536;50.860;4.286;2023-08-17T14:29:13;22.20;99.90
22738;DHT22;11536;50.860;4.286;2023-08-17T14:31:39;22.10;99.90
22738;DHT22;11536;50.860;4.286;2023-08-17T14:34:05;22.20;99.90
22738;DHT22;11536;50.860;4.286;2023-08-17T14:36:30;22.20;99.90
22738;DHT22;11536;50.860;4.286;2023-08-17T14:38:56;22.20;99.90
22738;DHT22;11536;50.860;4.286;2023-08-17T14:41:22;22.30;99.90
22738;DHT22;11536;50.860;4.286;2023-08-17T14:43:47;22.30;99.90
22738;DHT22;11536;50.860;4.286;2023-08-17T14:46:13;22.30;99.90
22738;DHT22;11536;50.860;4.286;2023-08-17T14:48:39;22.30;99.90
22738;DHT22;11536;50.860;4.286;2023-08-17T14:51:05;22.30;99.90
22738;DHT22;11536;50.860;4.286;2023-08-17T14:53:30;22.30;99.90
22738;DHT22;11536;50.860;4.286;2023-08-17T14:55:56;22.20;99.90
22738;DHT22;11536;50.860;4.286;2023-08-17T14:58:22;22.20;99.90
22738;DHT22;11536;50.860;4.286;2023-08-17T15:00:47;22.20;99.90
22738;DHT22;11536;50.860;4.286;2023-08-17T15:03:13;22.30;99.90
22738;DHT22;11536;50.860;4.286;2023-08-17T15:05:39;22.30;99.90
22738;DHT22;11536;50.860;4.286;2023-08-17T15:08:05;22.20;99.90
22738;DHT22;11536;50.860;4.286;2023-08-17T15:10:32;22.20;99.90
22738;DHT22;11536;50.860;4.286;2023-08-17T15:12:58;22.20;99.90
22738;DHT22;11536;50.860;4.286;2023-08-17T15:15:24;22.20;99.90
22738;DHT22;11536;50.860;4.286;2023-08-17T15:18:00;22.20;99.90
22738;DHT22;11536;50.860;4.286;2023-08-17T15:20:26;22.30;99.90
22738;DHT22;11536;50.860;4.286;2023-08-17T15:22:58;22.20;99.90
22738;DHT22;11536;50.860;4.286;2023-08-17T15:25:24;22.30;99.90
22738;DHT22;11536;50.860;4.286;2023-08-17T15:27:49;22.30;99.90
22738;DHT22;11536;50.860;4.286;2023-08-17T15:30:15;22.30;99.90
22738;DHT22;11536;50.860;4.286;2023-08-17T15:32:41;22.30;99.90
22738;DHT22;11536;50.860;4.286;2023-08-17T15:35:07;22.30;99.90